createdAt,value
2023-03-21T00:00:41.288Z,101.60
2023-03-21T00:03:55.747Z,103.00
2023-03-21T00:06:57.508Z,101.00
2023-03-21T00:10:08.889Z,102.40
2023-03-21T00:13:16.246Z,100.80
2023-03-21T00:16:24.526Z,98.50
2023-03-21T00:19:33.776Z,95.50
2023-03-21T00:22:35.842Z,97.70
2023-03-21T00:25:37.704Z,92.40
2023-03-21T00:28:41.331Z,92.00
2023-03-21T00:31:42.986Z,89.70
2023-03-21T00:34:58.848Z,86.10
2023-03-21T00:38:06.772Z,90.80
2023-03-21T00:41:20.951Z,86.60
2023-03-21T00:44:27.821Z,87.70
2023-03-21T00:47:29.446Z,87.60
2023-03-21T00:50:31.371Z,84.30
2023-03-21T00:53:32.989Z,85.30
2023-03-21T00:56:34.576Z,84.20
2023-03-21T00:59:36.311Z,80.60
2023-03-21T01:02:39.201Z,80.80
2023-03-21T01:05:44.265Z,78.70
2023-03-21T01:08:52.799Z,80.60
2023-03-21T01:11:54.800Z,76.70
2023-03-21T01:17:57.977Z,79.30
2023-03-21T01:21:00.565Z,79.30
2023-03-21T01:24:02.458Z,79.80
2023-03-21T01:27:04.399Z,75.30
2023-03-21T01:30:17.349Z,77.50
2023-03-21T01:33:22.146Z,74.70
2023-03-21T01:36:26.306Z,75.60
2023-03-21T01:39:28.669Z,76.40
2023-03-21T01:42:31.286Z,73.10
2023-03-21T01:46:28.580Z,75.70
2023-03-21T01:49:36.296Z,73.70
2023-03-21T01:52:39.199Z,77.20
2023-03-21T01:55:41.477Z,74.70
2023-03-21T01:58:43.937Z,73.90
2023-03-21T02:01:45.589Z,77.00
2023-03-21T02:04:47.594Z,70.10
2023-03-21T02:07:51.964Z,74.90
2023-03-21T02:10:53.598Z,71.60
2023-03-21T02:14:05.713Z,72.30
2023-03-21T02:17:15.815Z,71.60
2023-03-21T02:20:35.775Z,72.80
2023-03-21T02:24:25.367Z,72.70
2023-03-21T02:27:29.415Z,71.00
2023-03-21T02:30:59.327Z,74.80
2023-03-21T02:34:19.896Z,73.20
2023-03-21T02:37:36.648Z,74.50
2023-03-21T02:40:43.366Z,78.30
2023-03-21T02:43:54.838Z,76.00
2023-03-21T02:47:06.061Z,78.60
2023-03-21T02:50:41.990Z,82.50
2023-03-21T02:53:53.290Z,82.60
2023-03-21T02:57:02.579Z,86.50
2023-03-21T03:00:15.597Z,87.10
2023-03-21T03:03:31.536Z,91.90
2023-03-21T03:06:42.803Z,97.00
2023-03-21T03:10:08.075Z,95.70
2023-03-21T03:13:14.225Z,95.60
2023-03-21T03:16:25.978Z,91.40
2023-03-21T03:19:32.751Z,95.80
2023-03-21T03:22:56.860Z,99.40
2023-03-21T03:26:04.261Z,98.70
2023-03-21T03:29:13.434Z,95.20
2023-03-21T03:32:21.639Z,91.60
2023-03-21T03:35:24.105Z,89.80
2023-03-21T03:38:26.155Z,87.70
2023-03-21T03:41:30.136Z,85.90
2023-03-21T03:44:35.393Z,93.10
2023-03-21T03:47:56.379Z,91.20
2023-03-21T03:51:07.808Z,98.50
2023-03-21T03:54:13.497Z,92.90
2023-03-21T03:57:16.105Z,98.70
2023-03-21T04:00:18.177Z,89.70
2023-03-21T04:03:20.386Z,95.00
2023-03-21T04:06:21.967Z,92.70
2023-03-21T04:09:37.466Z,90.60
2023-03-21T04:12:44.690Z,91.30
2023-03-21T04:15:46.418Z,88.80
2023-03-21T04:18:48.142Z,90.30
2023-03-21T04:21:49.729Z,88.00
2023-03-21T04:31:02.470Z,88.20
2023-03-21T04:34:08.754Z,89.10
2023-03-21T04:37:10.624Z,89.80
2023-03-21T04:40:12.942Z,96.90
2023-03-21T04:43:14.767Z,93.10
2023-03-21T04:46:16.667Z,86.30
2023-03-21T04:49:18.395Z,93.50
2023-03-21T04:52:20.451Z,90.70
2023-03-21T04:55:22.073Z,90.90
2023-03-21T04:58:23.922Z,91.00
2023-03-21T05:01:25.980Z,98.30
2023-03-21T05:04:28.962Z,86.00
2023-03-21T05:07:30.970Z,84.50
2023-03-21T05:10:33.180Z,83.10
2023-03-21T05:13:34.821Z,86.30
2023-03-21T05:19:38.738Z,91.30
2023-03-21T05:22:40.414Z,88.90
2023-03-21T05:25:42.898Z,87.00
2023-03-21T05:28:44.693Z,91.50
2023-03-21T05:31:46.546Z,91.20
2023-03-21T05:34:48.253Z,85.60
2023-03-21T05:37:49.979Z,80.70
2023-03-21T05:40:52.094Z,74.00
2023-03-21T05:43:54.033Z,80.30
2023-03-21T05:46:55.752Z,82.10
2023-03-21T05:49:57.623Z,82.90
2023-03-21T05:52:59.555Z,88.50
2023-03-21T05:56:01.325Z,82.70
2023-03-21T05:59:03.041Z,92.50
2023-03-21T06:02:04.737Z,100.30
2023-03-21T06:05:06.928Z,112.40
2023-03-21T06:08:08.905Z,105.90
2023-03-21T06:11:39.345Z,107.30
2023-03-21T06:14:41.026Z,104.90
2023-03-21T06:20:44.093Z,111.70
2023-03-21T06:23:45.776Z,109.30
2023-03-21T06:26:47.920Z,105.00
2023-03-21T06:29:49.480Z,102.60
2023-03-21T06:32:51.124Z,108.60
2023-03-21T06:35:54.242Z,100.70
2023-03-21T06:38:56.005Z,91.60
2023-03-21T06:41:57.794Z,92.20
2023-03-21T06:44:59.574Z,85.80
2023-03-21T06:48:01.197Z,84.60
2023-03-21T06:51:02.902Z,74.80
2023-03-21T06:54:04.709Z,76.50
2023-03-21T06:57:06.253Z,70.60
2023-03-21T07:00:08.859Z,65.40
2023-03-21T07:03:11.567Z,67.70
2023-03-21T07:06:13.455Z,65.10
2023-03-21T07:09:15.027Z,59.50
2023-03-21T07:12:16.784Z,62.30
2023-03-21T07:15:18.468Z,55.40
2023-03-21T07:18:20.249Z,62.90
2023-03-21T07:21:22.215Z,59.70
2023-03-21T07:24:23.874Z,57.80
2023-03-21T07:27:25.439Z,46.80
2023-03-21T07:30:27.226Z,43.40
2023-03-21T07:33:28.964Z,42.70
2023-03-21T07:36:30.532Z,40.40
2023-03-21T07:39:32.190Z,39.40
2023-03-21T07:42:33.987Z,35.80
2023-03-21T07:45:36.164Z,37.50
2023-03-21T07:48:37.839Z,36.00
2023-03-21T07:51:39.546Z,37.00
2023-03-21T07:54:41.069Z,32.90
2023-03-21T07:57:42.885Z,29.20
2023-03-21T08:00:44.493Z,31.80
2023-03-21T08:03:46.211Z,31.60
2023-03-21T08:06:47.949Z,35.20
2023-03-21T08:09:49.573Z,34.70
2023-03-21T08:12:51.357Z,34.50
2023-03-21T08:15:52.986Z,32.70
2023-03-21T08:18:54.658Z,31.40
2023-03-21T08:21:56.624Z,30.70
2023-03-21T08:24:58.181Z,31.50
2023-03-21T08:28:00.013Z,32.70
2023-03-21T08:31:01.703Z,34.60
2023-03-21T08:34:03.510Z,33.00
2023-03-21T08:37:05.064Z,32.30
2023-03-21T08:40:09.098Z,32.90
2023-03-21T08:43:11.206Z,36.10
2023-03-21T08:46:14.209Z,37.20
2023-03-21T08:49:15.831Z,37.00
2023-03-21T08:52:17.448Z,34.90
2023-03-21T08:55:19.662Z,37.40
2023-03-21T08:58:21.218Z,34.80
2023-03-21T09:01:22.869Z,34.70
2023-03-21T09:04:24.533Z,35.30
2023-03-21T09:07:26.238Z,37.50
2023-03-21T09:10:27.799Z,39.40
2023-03-21T09:13:29.485Z,41.10
2023-03-21T09:16:31.293Z,44.10
2023-03-21T09:19:33.335Z,43.30
2023-03-21T09:22:34.860Z,40.90
2023-03-21T09:25:37.415Z,41.20
2023-03-21T09:28:39.817Z,43.10
2023-03-21T09:31:41.415Z,45.20
2023-03-21T09:34:43.045Z,42.60
2023-03-21T09:37:45.615Z,38.50
2023-03-21T09:41:09.007Z,41.30
2023-03-21T09:44:20.804Z,41.80
2023-03-21T09:47:31.062Z,42.40
2023-03-21T09:50:35.174Z,42.10
2023-03-21T09:53:38.863Z,43.10
2023-03-21T09:56:41.202Z,47.80
2023-03-21T09:59:43.065Z,49.10
2023-03-21T10:02:48.120Z,52.20
2023-03-21T10:05:52.181Z,51.90
2023-03-21T10:08:57.083Z,47.10
2023-03-21T10:12:10.570Z,47.70
2023-03-21T10:15:16.792Z,40.10
2023-03-21T10:18:23.235Z,42.60
2023-03-21T10:21:56.536Z,40.90
2023-03-21T10:24:48.516Z,42.70
2023-03-21T10:27:51.077Z,38.60
2023-03-21T10:30:53.411Z,36.70
2023-03-21T10:33:56.972Z,46.40
2023-03-21T10:36:59.844Z,49.20
2023-03-21T10:40:01.544Z,49.00
2023-03-21T10:43:26.470Z,45.60
2023-03-21T10:46:28.268Z,48.80
2023-03-21T10:49:31.440Z,49.10
2023-03-21T10:52:41.509Z,47.30
2023-03-21T10:55:43.409Z,47.60
2023-03-21T10:58:46.201Z,43.10
2023-03-21T11:01:52.760Z,45.00
2023-03-21T11:04:54.969Z,43.70
2023-03-21T11:08:06.278Z,39.60
2023-03-21T11:11:10.133Z,39.10
2023-03-21T11:14:36.497Z,39.80
2023-03-21T11:17:39.008Z,39.70
2023-03-21T11:20:51.988Z,41.50
2023-03-21T11:23:57.334Z,40.90
2023-03-21T11:26:59.542Z,41.00
2023-03-21T11:30:02.058Z,43.10
2023-03-21T11:33:04.457Z,40.80
2023-03-21T11:36:28.583Z,41.30
2023-03-21T11:39:36.826Z,40.70
2023-03-21T11:42:44.366Z,41.00
2023-03-21T11:46:10.991Z,39.10
2023-03-21T11:49:12.719Z,39.40
2023-03-21T11:52:23.511Z,39.60
2023-03-21T11:55:35.304Z,39.40
2023-03-21T11:58:57.663Z,40.80
2023-03-21T12:02:36.962Z,41.20
2023-03-21T12:06:01.862Z,43.50
2023-03-21T12:09:25.670Z,40.70
2023-03-21T12:12:39.264Z,41.90
2023-03-21T12:15:48.718Z,42.90
2023-03-21T12:19:02.095Z,38.30
2023-03-21T12:22:04.208Z,43.20
2023-03-21T12:25:38.105Z,43.30
2023-03-21T12:28:45.660Z,36.60
2023-03-21T12:31:53.562Z,38.40
2023-03-21T12:35:16.827Z,38.70
2023-03-21T12:38:25.465Z,39.30
2023-03-21T12:41:36.195Z,42.20
2023-03-21T12:44:40.123Z,39.60
2023-03-21T12:47:44.130Z,40.70
2023-03-21T12:50:46.363Z,41.80
2023-03-21T12:53:57.582Z,41.90
2023-03-21T12:57:09.286Z,42.60
2023-03-21T13:00:15.862Z,41.10
2023-03-21T13:03:44.174Z,41.20
2023-03-21T13:06:47.409Z,45.60
2023-03-21T13:09:49.065Z,44.40
2023-03-21T13:13:12.458Z,44.50
2023-03-21T13:16:36.376Z,42.60
2023-03-21T13:19:50.178Z,46.30
2023-03-21T13:22:51.807Z,45.00
2023-03-21T13:25:55.146Z,46.70
2023-03-21T13:28:58.493Z,49.30
2023-03-21T13:32:14.725Z,47.20
2023-03-21T13:35:20.584Z,47.70
2023-03-21T13:38:29.368Z,47.50
2023-03-21T13:41:39.041Z,49.90
2023-03-21T13:44:44.400Z,46.70
2023-03-21T13:47:55.429Z,46.80
2023-03-21T13:51:04.820Z,48.60
2023-03-21T13:54:06.673Z,45.90
2023-03-21T13:57:21.427Z,44.60
2023-03-21T14:00:31.217Z,42.60
2023-03-21T14:03:35.220Z,44.30
2023-03-21T14:06:48.303Z,42.10
2023-03-21T14:09:52.690Z,41.70
2023-03-21T14:12:54.565Z,38.90
2023-03-21T14:16:13.054Z,36.80
2023-03-21T14:19:14.693Z,43.40
2023-03-21T14:22:16.849Z,47.90
2023-03-21T14:25:20.948Z,42.00
2023-03-21T14:28:28.826Z,41.90
2023-03-21T14:31:32.944Z,44.10
2023-03-21T14:34:35.909Z,42.40
2023-03-21T14:37:41.221Z,49.80
2023-03-21T14:40:48.343Z,40.70
2023-03-21T14:44:14.483Z,41.70
2023-03-21T14:47:21.508Z,41.60
2023-03-21T14:50:46.356Z,39.50
2023-03-21T14:53:48.232Z,40.70
2023-03-21T14:56:53.009Z,41.80
2023-03-21T14:59:58.219Z,41.30
2023-03-21T15:03:00.175Z,41.80
2023-03-21T15:06:02.105Z,44.80
2023-03-21T15:09:05.165Z,48.70
2023-03-21T15:12:08.529Z,45.90
2023-03-21T15:15:13.654Z,43.40
2023-03-21T15:18:19.316Z,46.00
2023-03-21T15:21:27.919Z,45.40
2023-03-21T15:24:32.881Z,42.40
2023-03-21T15:27:41.725Z,45.20
2023-03-21T15:30:51.301Z,46.60
2023-03-21T15:33:54.044Z,40.50
2023-03-21T15:37:02.183Z,41.00
2023-03-21T15:40:31.643Z,43.80
2023-03-21T15:43:40.647Z,49.90
2023-03-21T15:46:46.124Z,50.40
2023-03-21T15:49:54.066Z,50.60
2023-03-21T15:52:56.728Z,44.60
2023-03-21T15:55:59.199Z,43.90
2023-03-21T15:59:02.865Z,39.80
2023-03-21T16:02:05.086Z,42.80
2023-03-21T16:05:22.773Z,39.60
2023-03-21T16:08:28.348Z,44.90
2023-03-21T16:12:02.229Z,45.20
2023-03-21T16:15:04.163Z,43.30
2023-03-21T16:18:07.706Z,47.90
2023-03-21T16:21:13.041Z,51.10
2023-03-21T16:24:14.793Z,46.80
2023-03-21T16:27:17.757Z,43.70
2023-03-21T16:30:20.811Z,48.70
2023-03-21T16:33:22.620Z,43.90
2023-03-21T16:36:32.699Z,47.70
2023-03-21T16:39:34.483Z,50.40
2023-03-21T16:42:36.098Z,53.50
2023-03-21T16:45:38.189Z,62.50
2023-03-21T16:48:40.947Z,61.30
2023-03-21T16:51:42.829Z,61.70
2023-03-21T16:54:44.896Z,60.60
2023-03-21T16:57:47.146Z,59.50
2023-03-21T17:00:48.755Z,61.30
2023-03-21T17:06:52.934Z,53.90
2023-03-21T17:09:54.552Z,60.30
2023-03-21T17:15:57.817Z,63.30
2023-03-21T17:18:59.748Z,56.30
2023-03-21T17:22:01.451Z,62.10
2023-03-21T17:25:03.360Z,54.70
2023-03-21T17:28:05.233Z,58.20
2023-03-21T17:31:15.439Z,60.00
2023-03-21T17:34:17.558Z,65.10
2023-03-21T17:37:19.966Z,62.70
2023-03-21T17:40:25.465Z,61.80
2023-03-21T17:43:27.257Z,66.40
2023-03-21T17:46:29.436Z,70.80
2023-03-21T17:49:31.229Z,89.30
2023-03-21T17:52:32.947Z,81.90
2023-03-21T17:55:35.419Z,77.90
2023-03-21T17:58:37.103Z,76.10
2023-03-21T18:08:08.639Z,75.70
2023-03-21T18:11:05.545Z,83.30
2023-03-21T18:14:16.341Z,76.70
2023-03-21T18:17:20.210Z,92.40
2023-03-21T18:20:24.394Z,85.00
2023-03-21T18:23:26.640Z,74.20
2023-03-21T18:26:30.993Z,69.60
2023-03-21T18:32:55.386Z,79.70
2023-03-21T18:35:59.447Z,97.60
2023-03-21T18:39:01.595Z,71.90
2023-03-21T18:42:05.097Z,69.60
2023-03-21T18:45:10.210Z,73.70
2023-03-21T18:48:11.833Z,77.60
2023-03-21T18:51:13.684Z,90.10
2023-03-21T18:54:15.451Z,104.60
2023-03-21T18:57:36.826Z,122.60
2023-03-21T19:03:43.144Z,98.20
2023-03-21T19:06:46.324Z,118.20
2023-03-21T19:10:09.482Z,108.50
2023-03-21T19:13:09.800Z,98.60
2023-03-21T19:16:11.805Z,103.50
2023-03-21T19:19:13.682Z,91.00
2023-03-21T19:22:16.696Z,81.80
2023-03-21T19:25:18.632Z,81.10
2023-03-21T19:28:20.300Z,98.60
2023-03-21T19:31:24.227Z,78.50
2023-03-21T19:34:26.011Z,90.80
2023-03-21T19:37:27.877Z,94.70
2023-03-21T19:40:29.498Z,98.40
2023-03-21T19:43:33.370Z,102.20
2023-03-21T19:46:35.260Z,96.20
2023-03-21T19:50:20.870Z,101.60
2023-03-21T19:59:06.818Z,80.30
2023-03-21T20:02:33.945Z,83.60
2023-03-21T20:05:32.485Z,89.90
2023-03-21T20:08:57.942Z,86.80
2023-03-21T20:11:56.635Z,79.40
2023-03-21T20:15:10.262Z,100.00
2023-03-21T20:18:18.241Z,108.60
2023-03-21T20:21:25.430Z,89.80
2023-03-21T20:24:27.409Z,84.30
2023-03-21T20:30:32.307Z,73.40
2023-03-21T20:39:46.818Z,83.90
2023-03-21T20:42:49.106Z,85.00
2023-03-21T20:46:01.401Z,104.90
2023-03-21T20:49:03.698Z,96.30
2023-03-21T20:58:59.335Z,80.90
2023-03-21T21:01:58.587Z,78.10
2023-03-21T21:14:45.636Z,77.80
2023-03-21T21:18:07.420Z,89.40
2023-03-21T21:21:09.662Z,83.20
2023-03-21T21:24:11.376Z,86.60
2023-03-21T21:27:13.361Z,100.90
2023-03-21T21:30:15.257Z,89.90
2023-03-21T21:33:16.885Z,97.40
2023-03-21T21:36:18.446Z,84.20
2023-03-21T21:39:20.188Z,81.00
2023-03-21T21:42:21.750Z,68.70
2023-03-21T21:48:33.871Z,86.70
2023-03-21T21:51:35.401Z,75.40
2023-03-21T21:54:37.104Z,99.20
2023-03-21T21:57:38.891Z,131.10
2023-03-21T22:00:40.919Z,92.00
2023-03-21T22:03:42.900Z,82.50
2023-03-21T22:06:44.845Z,80.00
2023-03-21T22:09:46.417Z,81.10
2023-03-21T22:12:48.130Z,99.50
2023-03-21T22:15:49.961Z,90.30
2023-03-21T22:18:51.571Z,79.20
2023-03-21T22:24:54.764Z,75.80
2023-03-21T22:30:57.940Z,93.20
2023-03-21T22:37:01.124Z,77.90
2023-03-21T22:40:04.130Z,78.80
2023-03-21T22:43:05.860Z,86.30
2023-03-21T22:46:07.488Z,87.90
2023-03-21T22:49:09.102Z,90.70
2023-03-21T22:55:12.454Z,83.00
2023-03-21T23:01:15.583Z,72.00
2023-03-21T23:07:18.915Z,69.50
2023-03-21T23:13:22.674Z,76.50
2023-03-21T23:16:24.346Z,74.40
2023-03-21T23:19:27.262Z,72.40
2023-03-21T23:22:32.607Z,81.30
2023-03-21T23:25:34.349Z,79.20
2023-03-21T23:28:35.973Z,86.60
2023-03-21T23:34:39.160Z,140.50
2023-03-21T23:40:42.363Z,75.60
2023-03-21T23:43:43.913Z,80.10
2023-03-21T23:49:47.124Z,77.40
2023-03-21T23:52:48.928Z,80.00
2023-03-21T23:55:50.869Z,74.50
2023-03-21T23:58:52.588Z,73.20
